M I D A S
Marine Information and Data Acquisition System
Tripno 431 of the Zeeleeuw from 2003-02-14 07:41:10 to 2003-02-14 14:48:10
Back to CruiseResearch ActivitiesStationsMapUnderway DataData graphs

EquipmentUnitsComment
TimeDGPSUTC
LatitudeDGPSDM.mWGS84
LongitudeDGPSDM.mWGS84
HeadingGyrodeg 
SOGDGPSknotsSpeed over ground
COGDGPSdegCourse over ground
DepthEcho soundermeters200 kHz
Missing or incorrect values are displayed as -999
Navigation data collected by the RV Zeeleeuw from 2003-02-14 07:41:10 to 2003-02-14 14:48:10
Time Latitude Longitude Heading SOG COG Depth
2003-02-14 07:42:14 51°13.676 2°55.788 102.7 3.4 285.9 10.3
2003-02-14 07:43:14 51°13.682 2°55.745 71.9 0.3 8.6 7.4
2003-02-14 07:44:13 51°13.699 2°55.76 27.5 1.1 16.9 11.5
2003-02-14 07:45:14 51°13.698 2°55.753 7.4 1 348.2 -999
2003-02-14 07:46:13 51°13.748 2°55.706 331.5 5.2 326.2 10.3
2003-02-14 07:47:14 51°13.852 2°55.613 339.8 7.7 335.2 9.9
2003-02-14 07:48:13 51°13.973 2°55.525 340.6 8.2 335.8 10.1
2003-02-14 07:49:13 51°14.098 2°55.438 341.5 8.2 336.3 10.1
2003-02-14 07:50:14 51°14.215 2°55.33 325.5 7.5 322.5 10.5
2003-02-14 07:51:14 51°14.293 2°55.199 312 6.9 308.8 10.8
2003-02-14 07:52:13 51°14.365 2°55.036 308.2 8.6 304.1 10.5
2003-02-14 07:53:13 51°14.423 2°54.788 277.9 10.7 275.6 10.7
2003-02-14 07:54:14 51°14.394 2°54.506 244.5 10.9 242.6 10.4
2003-02-14 07:55:14 51°14.3 2°54.232 244.6 12.2 241 9.2
2003-02-14 07:56:13 51°14.202 2°53.947 244.3 12.6 240.9 9.2
2003-02-14 07:57:13 51°14.101 2°53.643 244.8 13.5 241.9 9.4
2003-02-14 07:58:13 51°13.991 2°53.318 244.8 14.1 242.2 9.6
2003-02-14 07:59:13 51°13.882 2°52.984 245.3 14.3 242.1 10
2003-02-14 08:00:13 51°13.772 2°52.649 246 14.3 242.9 10
2003-02-14 08:01:14 51°13.658 2°52.31 246.7 14.3 241.7 10.4
2003-02-14 08:02:13 51°13.55 2°51.98 246.5 14.3 242.1 10.9
2003-02-14 08:03:13 51°13.44 2°51.645 245.3 14.3 241.5 10.9
2003-02-14 08:04:14 51°13.326 2°51.308 244.6 14.2 241.2 11.1
2003-02-14 08:05:13 51°13.219 2°50.979 245.3 14.2 242.9 11.4
2003-02-14 08:06:13 51°13.108 2°50.646 244.3 14.1 241.7 11.5
2003-02-14 08:07:14 51°12.996 2°50.31 244.7 14 243.5 11.7
2003-02-14 08:08:14 51°12.887 2°49.979 246 14.1 243.1 11.9
2003-02-14 08:09:14 51°12.778 2°49.648 244.8 14.1 242.3 12
2003-02-14 08:10:14 51°12.671 2°49.313 246.7 14.2 242.5 12.3
2003-02-14 08:11:14 51°12.563 2°48.98 246.3 14.1 244 12.4
2003-02-14 08:12:14 51°12.455 2°48.649 245.2 14.1 241.5 12.6
2003-02-14 08:13:14 51°12.349 2°48.316 245.7 14.1 243.6 12.7
2003-02-14 08:14:13 51°12.243 2°47.992 245.6 14 242.1 13
2003-02-14 08:15:14 51°12.135 2°47.658 245.5 13.9 243.7 13.2
2003-02-14 08:16:14 51°12.027 2°47.332 244.9 13.9 242.3 13.2
2003-02-14 08:17:14 51°11.924 2°47.003 249.2 13.9 245.3 13
2003-02-14 08:18:14 51°11.834 2°46.664 251.1 13.9 248.1 13.5
2003-02-14 08:19:14 51°11.746 2°46.324 251.3 14 248.2 13.7
2003-02-14 08:20:14 51°11.659 2°45.982 249.7 13.9 247 13.5
2003-02-14 08:21:14 51°11.568 2°45.642 249.2 13.9 247.4 13.4
2003-02-14 08:22:14 51°11.481 2°45.302 251.4 13.9 246.6 13.4
2003-02-14 08:23:14 51°11.383 2°44.973 247.5 13.8 244.6 13.3
2003-02-14 08:24:13 51°11.285 2°44.652 247.9 13.8 245.6 13.1
2003-02-14 08:25:14 51°11.184 2°44.318 246.4 13.7 243.7 13
2003-02-14 08:26:13 51°11.088 2°43.994 247.1 13.7 246.1 13
2003-02-14 08:27:14 51°10.99 2°43.662 246.8 13.6 244.3 12.7
2003-02-14 08:28:14 51°10.892 2°43.338 246.6 13.5 244.2 12.5
2003-02-14 08:29:14 51°10.793 2°43.012 247.1 13.6 244.1 12.4
2003-02-14 08:30:13 51°10.697 2°42.692 247.6 13.6 244.8 12.1
2003-02-14 08:31:14 51°10.597 2°42.362 248.1 13.6 244.8 11.9
2003-02-14 08:32:14 51°10.498 2°42.04 247.4 13.5 243.5 12
2003-02-14 08:33:14 51°10.4 2°41.719 247.4 13.4 245.2 11.7
2003-02-14 08:34:13 51°10.305 2°41.404 247.8 13.3 244.8 11.6
2003-02-14 08:35:14 51°10.205 2°41.082 248.1 13.4 243.5 11.6
2003-02-14 08:36:14 51°10.11 2°40.765 249.3 13.3 245.3 11.4
2003-02-14 08:37:14 51°10.015 2°40.446 249 13.4 245.3 11.5
2003-02-14 08:38:14 51°9.919 2°40.125 248.4 13.5 245.2 11.6
2003-02-14 08:39:14 51°9.823 2°39.8 250.1 13.6 245.9 11.7
2003-02-14 08:40:14 51°9.729 2°39.475 249.7 13.6 245.4 11.7
2003-02-14 08:41:14 51°9.636 2°39.15 249.5 13.6 245.3 11.8
2003-02-14 08:42:14 51°9.54 2°38.826 249.2 13.5 245.5 11.7
2003-02-14 08:43:14 51°9.445 2°38.502 247.2 13.4 244 11.8
2003-02-14 08:44:14 51°9.351 2°38.18 248.4 13.3 246.2 11.9
2003-02-14 08:45:14 51°9.259 2°37.861 247.7 13.2 244.9 11.7
2003-02-14 08:46:14 51°9.164 2°37.561 241.6 11.2 238.1 11.7
2003-02-14 08:47:14 51°9.108 2°37.349 255.6 7 251.4 11.7
2003-02-14 08:48:14 51°9.098 2°37.242 252.7 1.4 255.4 11.6
2003-02-14 08:49:14 51°9.09 2°37.237 222.6 1 206.7 11.7
2003-02-14 08:50:14 51°9.075 2°37.227 223 0.9 200.5 11.6
2003-02-14 08:51:14 51°9.062 2°37.22 224.8 0.8 196.7 11.5
2003-02-14 08:52:13 51°9.052 2°37.218 217.9 0.6 181.8 11.5
2003-02-14 08:53:14 51°9.043 2°37.221 214.8 0.5 157.8 11.5
2003-02-14 08:54:13 51°9.038 2°37.227 215.2 0.4 140.8 11.4
2003-02-14 08:55:14 51°9.034 2°37.235 216.8 0.4 121 11.4
2003-02-14 08:56:13 51°9.032 2°37.243 218.6 0.4 109.5 11.5
2003-02-14 08:57:14 51°9.03 2°37.251 220.7 0.3 99.7 11.3
2003-02-14 08:58:13 51°9.03 2°37.261 218.3 0.4 97.6 11.3
2003-02-14 08:59:14 51°9.029 2°37.271 214 0.4 106.6 11.3
2003-02-14 09:00:14 51°9.028 2°37.282 205.3 0.5 96 11.3
2003-02-14 09:01:13 51°9.028 2°37.298 196.3 0.6 91.5 11.4
2003-02-14 09:02:14 51°9.028 2°37.316 187.6 0.8 92.9 11.4
2003-02-14 09:03:14 51°9.029 2°37.336 180.2 0.7 83.9 11.4
2003-02-14 09:04:14 51°9.031 2°37.357 172.2 0.8 82.6 11.4
2003-02-14 09:05:14 51°9.027 2°37.382 170.8 1.4 126.7 11.5
2003-02-14 09:06:14 51°8.99 2°37.37 238.8 2.8 227.3 11.3
2003-02-14 09:07:14 51°9.016 2°37.275 305.5 5.4 311 11.2
2003-02-14 09:08:13 51°9.098 2°37.169 338.5 6.8 341.1 12
2003-02-14 09:09:14 51°9.152 2°37.151 307.7 1.4 341.5 12.2
2003-02-14 09:10:14 51°9.159 2°37.157 282.8 0.4 35 12.5
2003-02-14 09:11:14 51°9.163 2°37.164 272.9 0.3 55.8 12.8
2003-02-14 09:12:14 51°9.164 2°37.167 270 0.1 41.9 12.5
2003-02-14 09:13:13 51°9.165 2°37.164 263.3 0.2 256.9 12.7
2003-02-14 09:14:14 51°9.161 2°37.158 243.1 0.4 215.6 12.6
2003-02-14 09:15:14 51°9.15 2°37.154 223.5 0.8 185.8 12.5
2003-02-14 09:16:13 51°9.135 2°37.155 206.7 1 170.2 12.4
2003-02-14 09:17:13 51°9.117 2°37.164 196.6 1.2 161.8 12.2
2003-02-14 09:18:13 51°9.099 2°37.179 190.1 1.3 149 12.2
2003-02-14 09:19:14 51°9.081 2°37.197 193.1 1.2 148.2 12
2003-02-14 09:20:14 51°9.065 2°37.209 211.1 0.9 157.8 11.8
2003-02-14 09:21:14 51°9.054 2°37.212 232.5 0.5 175.4 11.9
2003-02-14 09:22:14 51°9.05 2°37.21 256.2 0.2 250.1 11.8
2003-02-14 09:23:14 51°9.053 2°37.205 276 0.4 329.2 12
2003-02-14 09:24:14 51°9.062 2°37.202 296.3 0.6 348.5 11.9
2003-02-14 09:25:13 51°9.074 2°37.203 312 0.8 8.5 12
2003-02-14 09:26:14 51°9.088 2°37.208 318.7 0.9 12.1 11.9
2003-02-14 09:27:13 51°9.103 2°37.213 314 0.9 12.7 12.5
2003-02-14 09:28:14 51°9.117 2°37.217 304.6 0.7 8.1 12.3
2003-02-14 09:29:14 51°9.128 2°37.218 292.5 0.6 5.4 12.4
2003-02-14 09:30:14 51°9.135 2°37.217 276.3 0.4 351.6 12.3
2003-02-14 09:31:14 51°9.138 2°37.216 256.1 0.1 346.5 12.6
2003-02-14 09:32:13 51°9.135 2°37.218 231.5 0.3 157.7 12.4
2003-02-14 09:33:14 51°9.129 2°37.223 220.3 0.6 157.9 12.5
2003-02-14 09:34:14 51°9.119 2°37.23 216.2 0.7 155.9 12.3
2003-02-14 09:35:13 51°9.108 2°37.235 221.9 0.7 165.9 12.4
2003-02-14 09:36:14 51°9.096 2°37.225 253.5 0.8 233.6 12.3
2003-02-14 09:37:14 51°9.1 2°37.2 290.6 1.2 308.5 12.2
2003-02-14 09:38:14 51°9.123 2°37.185 323.6 1.6 349.3 12.4
2003-02-14 09:39:14 51°9.153 2°37.189 351.6 1.9 12.1 12.7
2003-02-14 09:40:14 51°9.184 2°37.211 16.8 2.2 31.2 12.9
2003-02-14 09:41:14 51°9.212 2°37.251 42 2.3 47.2 13.4
2003-02-14 09:42:14 51°9.23 2°37.305 74 2.3 68.4 13.3
2003-02-14 09:43:14 51°9.233 2°37.366 108.8 2.3 89.7 13.1
2003-02-14 09:44:13 51°9.224 2°37.422 143.6 2.2 110.7 12.9
2003-02-14 09:45:14 51°9.205 2°37.462 180.5 1.7 138.7 12.8
2003-02-14 09:46:14 51°9.183 2°37.475 215.2 1.2 170.7 12.8
2003-02-14 09:47:14 51°9.169 2°37.467 247.7 0.8 220.3 12.4
2003-02-14 09:48:14 51°9.169 2°37.448 280 0.9 295.9 12.5
2003-02-14 09:49:14 51°9.188 2°37.401 283.7 4.3 292.2 12.7
2003-02-14 09:50:14 51°9.097 2°37.207 227.4 11.7 221.9 12.2
2003-02-14 09:51:14 51°9.018 2°36.911 261.6 12.6 256.9 11.7
2003-02-14 09:52:14 51°8.97 2°36.586 259.2 12.7 255.9 11.8
2003-02-14 09:53:14 51°8.92 2°36.259 260.5 12.8 256.5 12.1
2003-02-14 09:54:14 51°8.871 2°35.93 260.3 12.7 257.3 13.2
2003-02-14 09:55:14 51°8.815 2°35.604 256.8 12.8 253.4 14.5
2003-02-14 09:56:14 51°8.756 2°35.279 256.3 12.7 253.6 16
2003-02-14 09:57:14 51°8.696 2°34.953 256.8 12.8 253.7 17
2003-02-14 09:58:14 51°8.628 2°34.63 253.5 12.9 250 18.4
2003-02-14 09:59:14 51°8.547 2°34.319 244.5 12.7 240.7 18.5
2003-02-14 10:00:14 51°8.431 2°34.036 242.9 12.7 236.6 18.5
2003-02-14 10:01:13 51°8.324 2°33.752 245.1 12.6 240.3 18.6
2003-02-14 10:02:14 51°8.238 2°33.471 245.5 10.1 242.6 18.3
2003-02-14 10:03:13 51°8.167 2°33.3 243.8 7.2 239.7 18.1
2003-02-14 10:04:14 51°8.121 2°33.131 251.8 6.6 249.1 18.1
2003-02-14 10:05:13 51°8.096 2°33.017 248.1 3.8 248.2 18.2
2003-02-14 10:06:14 51°8.094 2°32.988 265.2 0.9 280.9 18.4
2003-02-14 10:07:14 51°8.096 2°32.963 251.8 0.8 269.7 18.3
2003-02-14 10:08:14 51°8.094 2°32.95 236.2 0.4 235.2 18.4
2003-02-14 10:09:14 51°8.089 2°32.948 221.3 0.3 165.2 18.4
2003-02-14 10:10:14 51°8.085 2°32.956 207.1 0.5 123.9 18.1
2003-02-14 10:11:14 51°8.08 2°32.968 203.2 0.6 115 18.2
2003-02-14 10:12:14 51°8.076 2°32.981 204.2 0.5 111.9 18
2003-02-14 10:13:14 51°8.073 2°32.994 205.7 0.4 111.3 18
2003-02-14 10:14:14 51°8.07 2°33.002 221.5 0.3 138.5 17.9
2003-02-14 10:15:14 51°8.066 2°33.003 229.6 0.2 183.5 17.7
2003-02-14 10:16:14 51°8.062 2°33.001 232.4 0.3 203.8 17.7
2003-02-14 10:17:14 51°8.058 2°32.995 233.8 0.3 225.9 17.7
2003-02-14 10:18:14 51°8.053 2°32.988 234.5 0.4 230.5 17.9
2003-02-14 10:19:14 51°8.05 2°32.977 247.9 0.5 264.4 18.1
2003-02-14 10:20:14 51°8.053 2°32.962 265.8 0.7 301.2 18.1
2003-02-14 10:21:14 51°8.064 2°32.946 284.1 1 321.7 18.3
2003-02-14 10:22:14 51°8.081 2°32.934 304.2 1.3 343.1 18.7
2003-02-14 10:23:14 51°8.106 2°32.93 317.7 1.5 358.1 18.3
2003-02-14 10:24:13 51°8.133 2°32.934 330.2 1.7 9.1 18.8
2003-02-14 10:25:14 51°8.162 2°32.944 325.8 1.7 13.1 19
2003-02-14 10:26:14 51°8.188 2°32.953 312.9 1.6 9.6 19
2003-02-14 10:27:14 51°8.211 2°32.959 298.6 1.4 6.9 19.2
2003-02-14 10:28:14 51°8.23 2°32.962 282.3 1.1 5.3 19.1
2003-02-14 10:29:13 51°8.244 2°32.964 261.2 0.7 8.3 18.9
2003-02-14 10:30:14 51°8.251 2°32.969 237.4 0.4 46.3 19.2
2003-02-14 10:31:14 51°8.252 2°32.98 213.9 0.6 87.4 19.3
2003-02-14 10:32:14 51°8.251 2°33.001 193.2 0.9 107.7 18.8
2003-02-14 10:33:14 51°8.23 2°33.005 220.8 1.6 199.8 19
2003-02-14 10:34:14 51°8.218 2°32.974 254.4 1.4 259.7 19.2
2003-02-14 10:35:14 51°8.23 2°32.935 283.4 1.9 311.7 19
2003-02-14 10:36:14 51°8.262 2°32.907 311.3 2.4 340.2 18.9
2003-02-14 10:37:14 51°8.304 2°32.899 335.5 2.7 359.6 19
2003-02-14 10:38:13 51°8.35 2°32.913 356.3 3 15.5 18.8
2003-02-14 10:39:14 51°8.399 2°32.943 13.7 3.1 26.2 18.8
2003-02-14 10:40:14 51°8.444 2°32.992 33.7 3.3 38.1 18.2
2003-02-14 10:41:14 51°8.482 2°33.055 57.2 3.3 51.2 18.7
2003-02-14 10:42:14 51°8.507 2°33.131 91.5 3.1 69.4 18.2
2003-02-14 10:43:14 51°8.514 2°33.206 127.6 2.7 90.4 18.2
2003-02-14 10:44:12 51°8.506 2°33.262 166.7 1.9 114.6 18
2003-02-14 10:45:14 51°8.474 2°33.312 158.1 4.8 141.6 18
2003-02-14 10:46:14 51°8.455 2°33.53 67.7 10.1 64.1 18.9
2003-02-14 10:47:13 51°8.59 2°33.562 313.8 8.5 324.6 18.3
2003-02-14 10:48:14 51°8.572 2°33.378 243.8 8.3 240 18
2003-02-14 10:49:14 51°8.566 2°33.134 271 9.7 272.9 18.7
2003-02-14 10:50:14 51°8.565 2°32.877 264.2 9.6 266 21
2003-02-14 10:51:14 51°8.542 2°32.65 257.9 7.3 259.5 21.7
2003-02-14 10:52:14 51°8.517 2°32.495 251 5.6 251.9 20.9
2003-02-14 10:53:14 51°8.499 2°32.393 257.3 3.4 261.1 21
2003-02-14 10:54:14 51°8.505 2°32.352 275.5 0.9 318 21.2
2003-02-14 10:55:14 51°8.516 2°32.337 267.9 0.8 317 21.2
2003-02-14 10:56:13 51°8.521 2°32.326 246.3 0.4 287.4 21.4
2003-02-14 10:57:14 51°8.518 2°32.324 218.2 0.3 170 21.3
2003-02-14 10:58:13 51°8.509 2°32.326 217 0.6 176.4 21.2
2003-02-14 10:59:14 51°8.498 2°32.326 212 0.8 171.3 21.1
2003-02-14 11:00:14 51°8.483 2°32.337 197.3 1.1 148.2 21.2
2003-02-14 11:01:14 51°8.471 2°32.345 218.7 0.6 171.3 21.1
2003-02-14 11:02:14 51°8.467 2°32.342 245.4 0.3 265.7 21.2
2003-02-14 11:03:14 51°8.472 2°32.332 266.1 0.7 319.8 21.4
2003-02-14 11:04:14 51°8.483 2°32.319 276.6 0.9 326.1 21.2
2003-02-14 11:05:13 51°8.498 2°32.306 286.4 1.1 332.3 21.3
2003-02-14 11:06:14 51°8.515 2°32.294 289 1.1 338.7 21.2
2003-02-14 11:07:14 51°8.529 2°32.284 272.1 0.8 330 21.1
2003-02-14 11:08:14 51°8.534 2°32.276 249.7 0.4 305.3 20.8
2003-02-14 11:09:13 51°8.534 2°32.273 224.9 0.2 167.2 21.1
2003-02-14 11:10:14 51°8.527 2°32.277 209.5 0.5 158.4 21
2003-02-14 11:11:14 51°8.518 2°32.283 205.1 0.6 158.8 20.9
2003-02-14 11:12:14 51°8.508 2°32.287 218.3 0.5 183.1 21.1
2003-02-14 11:13:14 51°8.501 2°32.28 233.3 0.5 225.1 21.2
2003-02-14 11:14:14 51°8.496 2°32.266 238.7 0.6 242.5 21.3
2003-02-14 11:15:14 51°8.492 2°32.248 245.1 0.8 252.7 21.1
2003-02-14 11:16:14 51°8.487 2°32.228 246.6 0.9 252.9 21.1
2003-02-14 11:17:14 51°8.484 2°32.204 249.3 0.9 255.2 21
2003-02-14 11:18:14 51°8.481 2°32.182 253.7 0.8 260.6 20.9
2003-02-14 11:19:14 51°8.48 2°32.164 252.7 0.6 260.5 20.7
2003-02-14 11:20:14 51°8.478 2°32.151 250.6 0.5 266.4 20.7
2003-02-14 11:21:14 51°8.478 2°32.138 248.7 0.4 264.4 20.7
2003-02-14 11:22:14 51°8.477 2°32.128 241.9 0.4 245.6 20.8
2003-02-14 11:23:14 51°8.474 2°32.109 263.7 1.2 270.4 20.5
2003-02-14 11:24:14 51°8.49 2°32.073 309.8 2 321.9 20.8
2003-02-14 11:25:13 51°8.525 2°32.054 347.8 2.4 352.1 20.5
2003-02-14 11:26:13 51°8.563 2°32.06 6.1 2.2 10.6 20.5
2003-02-14 11:27:14 51°8.596 2°32.075 16.6 2 19 20.5
2003-02-14 11:28:14 51°8.626 2°32.096 25.7 1.9 26.6 20.2
2003-02-14 11:29:14 51°8.653 2°32.124 36.7 1.9 37.9 20.2
2003-02-14 11:30:14 51°8.674 2°32.158 50.5 1.8 49.2 20.2
2003-02-14 11:31:14 51°8.69 2°32.198 66.4 1.8 62.9 20.3
2003-02-14 11:32:14 51°8.698 2°32.244 90.7 1.8 84 20.5
2003-02-14 11:33:14 51°8.694 2°32.292 115.3 1.9 105.9 20.7
2003-02-14 11:34:14 51°8.681 2°32.339 127.7 2 117.8 20.9
2003-02-14 11:35:13 51°8.668 2°32.387 117.5 2 109.9 21
2003-02-14 11:36:14 51°8.663 2°32.438 101.3 1.9 90.8 21
2003-02-14 11:37:14 51°8.667 2°32.486 88.9 1.8 76.6 20.9
2003-02-14 11:38:14 51°8.676 2°32.532 82 1.8 71.8 20.7
2003-02-14 11:39:14 51°8.683 2°32.578 85.3 1.8 76.7 20.8
2003-02-14 11:40:14 51°8.689 2°32.624 88.6 1.8 80.5 20.6
2003-02-14 11:41:14 51°8.695 2°32.67 87.6 1.8 77.6 20.7
2003-02-14 11:42:14 51°8.702 2°32.716 87.4 1.8 75.8 20.8
2003-02-14 11:43:14 51°8.711 2°32.762 81.2 1.9 70.5 20.7
2003-02-14 11:44:14 51°8.723 2°32.808 74 1.9 66 20.6
2003-02-14 11:45:14 51°8.736 2°32.853 67.9 1.9 62.7 20.6
2003-02-14 11:46:14 51°8.753 2°32.896 59.1 1.9 56 20.4
2003-02-14 11:47:14 51°8.773 2°32.936 47.2 1.9 48.7 20.2
2003-02-14 11:48:12 51°8.795 2°32.97 30.2 1.9 38.4 20.1
2003-02-14 11:49:14 51°8.822 2°32.995 12.3 1.9 24.7 20.2
2003-02-14 11:50:14 51°8.853 2°33.01 4.3 1.9 14.8 20.3
2003-02-14 11:51:14 51°8.884 2°33.018 356.9 1.9 4.8 20.3
2003-02-14 11:52:14 51°8.916 2°33.02 351.7 2 2.6 20.4
2003-02-14 11:53:14 51°8.948 2°33.021 347.8 2 359.4 20.4
2003-02-14 11:54:14 51°8.98 2°33.018 342.9 1.9 354.8 20
2003-02-14 11:55:14 51°9.012 2°33.009 336.5 1.9 345.5 19.9
2003-02-14 11:56:14 51°9.041 2°32.992 329.9 1.8 337.1 19.5
2003-02-14 11:57:14 51°9.066 2°32.969 314.7 1.6 325.5 19.3
2003-02-14 11:58:14 51°9.082 2°32.939 292.6 1.5 304.9 18.5
2003-02-14 11:59:13 51°9.082 2°32.894 246.9 1.8 249.1 18.2
2003-02-14 12:00:14 51°9.063 2°32.864 217 1.6 212.8 18.5
2003-02-14 12:01:14 51°9.038 2°32.853 193.8 1.5 184.8 19.1
2003-02-14 12:02:14 51°9.014 2°32.858 178.5 1.4 167.7 19.5
2003-02-14 12:03:14 51°8.993 2°32.866 180.3 1.4 167.2 19.9
2003-02-14 12:04:14 51°8.955 2°32.823 251.9 3.5 247.5 20.1
2003-02-14 12:05:14 51°8.971 2°32.737 303.2 3.1 302.2 19.6
2003-02-14 12:06:14 51°9.003 2°32.683 315.4 2.6 316.8 18
2003-02-14 12:07:14 51°9.031 2°32.645 321.5 2 322.8 16.2
2003-02-14 12:08:14 51°9.052 2°32.623 326.5 1.2 329.6 15
2003-02-14 12:09:14 51°9.066 2°32.611 330.5 0.9 331.8 14.2
2003-02-14 12:10:14 51°9.077 2°32.604 334.3 0.6 338 13.7
2003-02-14 12:11:14 51°9.083 2°32.6 337.3 0.3 340.7 13.5
2003-02-14 12:12:14 51°9.086 2°32.597 339.6 0.1 312.5 13.2
2003-02-14 12:13:14 51°9.085 2°32.595 333.3 0.2 188 13.4
2003-02-14 12:14:14 51°9.081 2°32.596 319.6 0.3 164.8 13.7
2003-02-14 12:15:14 51°9.075 2°32.601 305.2 0.4 140.6 13.8
2003-02-14 12:16:14 51°9.071 2°32.61 296.1 0.4 122 14
2003-02-14 12:17:14 51°9.067 2°32.62 288.5 0.5 122 14.3
2003-02-14 12:18:14 51°9.063 2°32.633 280.2 0.5 112.1 14.7
2003-02-14 12:19:14 51°9.061 2°32.644 272.6 0.4 108.6 14.8
2003-02-14 12:20:14 51°9.06 2°32.652 270.4 0.3 99.6 15.2
2003-02-14 12:21:14 51°9.059 2°32.658 272.1 0.2 113.8 15.1
2003-02-14 12:22:14 51°9.057 2°32.662 276.8 0.1 121.2 15.4
2003-02-14 12:23:14 51°9.056 2°32.665 286 0.1 134.9 15.5
2003-02-14 12:24:14 51°9.054 2°32.667 297.3 0.1 139.5 15.5
2003-02-14 12:25:14 51°9.052 2°32.669 307.3 0.2 155.3 15.7
2003-02-14 12:26:14 51°9.049 2°32.67 314.4 0.2 166.5 15.6
2003-02-14 12:27:14 51°9.045 2°32.671 315.9 0.2 176 15.8
2003-02-14 12:28:14 51°9.042 2°32.67 313.5 0.1 229.4 16.1
2003-02-14 12:29:14 51°9.042 2°32.667 311.9 0.1 268.6 15.9
2003-02-14 12:30:14 51°9.044 2°32.659 312.5 0.4 300.5 15.6
2003-02-14 12:31:14 51°9.049 2°32.649 315.1 0.5 315.7 15.3
2003-02-14 12:32:14 51°9.056 2°32.638 319.5 0.6 318.9 14.6
2003-02-14 12:33:14 51°9.064 2°32.627 323.8 0.6 322.9 14.4
2003-02-14 12:34:14 51°9.072 2°32.616 327.6 0.7 316.8 14.1
2003-02-14 12:35:14 51°9.087 2°32.601 341.8 1.4 333.8 13.2
2003-02-14 12:36:14 51°9.114 2°32.59 0.8 1.9 351.8 12.3
2003-02-14 12:37:14 51°9.147 2°32.596 25.9 2.1 15 11.5
2003-02-14 12:38:14 51°9.176 2°32.624 57.5 2.1 44.5 11.3
2003-02-14 12:39:13 51°9.188 2°32.672 98.6 2 88.2 11.5
2003-02-14 12:40:14 51°9.175 2°32.726 132 2.3 125.3 12.4
2003-02-14 12:41:14 51°9.141 2°32.768 156.1 2.7 150.6 13.9
2003-02-14 12:42:14 51°9.098 2°32.789 176.2 2.8 169.8 15.8
2003-02-14 12:43:14 51°9.049 2°32.784 198.2 3 193 17.6
2003-02-14 12:44:14 51°9.004 2°32.746 223 3.1 217.8 18.4
2003-02-14 12:45:14 51°8.973 2°32.681 242.6 2.8 239.3 18.5
2003-02-14 12:46:14 51°8.951 2°32.627 232.7 2.2 231.4 18.7
2003-02-14 12:47:14 51°8.927 2°32.593 214.3 1.8 214.4 18.8
2003-02-14 12:48:14 51°8.878 2°32.623 130.2 4.3 129.2 19.6
2003-02-14 12:49:14 51°8.89 2°32.73 53.7 3.9 53.4 19.8
2003-02-14 12:50:14 51°8.931 2°32.807 62.5 4.2 56.1 19.5
2003-02-14 12:51:14 51°8.948 2°32.908 95.2 3.7 87.1 19.6
2003-02-14 12:52:14 51°8.931 2°32.997 125.6 3.6 118.5 19.5
2003-02-14 12:53:14 51°8.894 2°33.072 141.2 3.6 133.4 19.7
2003-02-14 12:54:14 51°8.853 2°33.137 150.8 3.5 138.9 19.6
2003-02-14 12:55:14 51°8.807 2°33.184 167.5 3.2 156.1 19.4
2003-02-14 12:56:14 51°8.754 2°33.196 192 3.3 185.2 19.4
2003-02-14 12:57:14 51°8.704 2°33.16 220.6 3.3 218.3 19.4
2003-02-14 12:58:14 51°8.676 2°33.085 251.3 3.4 253.2 19.8
2003-02-14 12:59:14 51°8.682 2°32.993 283.8 3.7 288.6 20
2003-02-14 13:00:14 51°8.719 2°32.913 314.1 3.8 317.8 19.5
2003-02-14 13:01:14 51°8.776 2°32.863 338.9 3.9 338.1 19.4
2003-02-14 13:02:14 51°8.841 2°32.846 2.9 4 359.5 19.6
2003-02-14 13:03:14 51°8.906 2°32.869 28 4 21.8 19.6
2003-02-14 13:04:14 51°8.956 2°32.931 55.8 3.9 48.3 19.6
2003-02-14 13:05:14 51°8.979 2°33.025 90.9 3.8 83.7 19.1
2003-02-14 13:06:14 51°8.966 2°33.111 121.2 2.8 112.8 19.2
2003-02-14 13:07:14 51°8.95 2°33.167 128.4 2 115 19.3
2003-02-14 13:08:14 51°8.938 2°33.204 134.4 1.3 119.5 19.1
2003-02-14 13:09:14 51°8.931 2°33.23 136.5 1 119.2 19.3
2003-02-14 13:10:14 51°8.925 2°33.251 134.4 0.9 112.8 19.3
2003-02-14 13:11:14 51°8.919 2°33.277 122.2 1.4 111.2 19.4
2003-02-14 13:12:14 51°8.935 2°33.375 60.9 6.4 58.2 19.1
2003-02-14 13:13:14 51°9.002 2°33.575 74.9 9.3 68.3 19
2003-02-14 13:14:14 51°9.047 2°33.818 78.9 9.6 73.3 18
2003-02-14 13:15:14 51°9.094 2°34.063 78.9 9.7 72.9 17.8
2003-02-14 13:16:14 51°9.14 2°34.307 78.7 9.6 73 17.6
2003-02-14 13:17:14 51°9.187 2°34.548 78.3 9.5 72.4 16.3
2003-02-14 13:18:14 51°9.234 2°34.785 78.7 9.4 72.4 17.5
2003-02-14 13:19:14 51°9.282 2°35.025 78.7 9.5 72.7 18
2003-02-14 13:20:14 51°9.33 2°35.266 78.3 9.5 72.8 18.2
2003-02-14 13:21:14 51°9.378 2°35.505 78.4 9.5 72.8 17.5
2003-02-14 13:22:14 51°9.424 2°35.746 78.3 9.5 72.8 17.6
2003-02-14 13:23:14 51°9.47 2°35.987 77.8 9.5 72.8 17.5
2003-02-14 13:24:14 51°9.524 2°36.224 75.2 9.5 70 17.2
2003-02-14 13:25:14 51°9.576 2°36.462 75.1 9.5 70.4 17.4
2003-02-14 13:26:14 51°9.629 2°36.7 75.1 9.5 70.8 16.7
2003-02-14 13:27:14 51°9.679 2°36.935 75.1 9.3 71.6 17
2003-02-14 13:28:14 51°9.727 2°37.17 75.4 9.4 72 17
2003-02-14 13:29:14 51°9.776 2°37.406 75 9.4 71.4 16.9
2003-02-14 13:30:14 51°9.824 2°37.643 75 9.5 71.8 17.1
2003-02-14 13:31:14 51°9.873 2°37.884 75.3 9.6 72.5 17
2003-02-14 13:32:14 51°9.92 2°38.125 75.4 9.5 72.9 16.5
2003-02-14 13:33:14 51°9.966 2°38.364 75.1 9.5 72.8 16.1
2003-02-14 13:34:14 51°10.013 2°38.603 75.4 9.5 72.9 15.7
2003-02-14 13:35:14 51°10.06 2°38.843 75.3 9.4 72.5 15.5
2003-02-14 13:36:14 51°10.108 2°39.079 75.1 9.3 71.6 14.9
2003-02-14 13:37:14 51°10.157 2°39.312 75.3 9.3 71.3 14.7
2003-02-14 13:38:14 51°10.205 2°39.546 75.4 9.3 72.2 14.1
2003-02-14 13:39:14 51°10.254 2°39.782 75 9.4 71.9 14
2003-02-14 13:40:14 51°10.303 2°40.017 74.7 9.4 71.5 13.7
2003-02-14 13:41:14 51°10.351 2°40.251 75.1 9.3 71.1 13.3
2003-02-14 13:42:14 51°10.401 2°40.481 75.5 9.2 71.4 13.1
2003-02-14 13:43:14 51°10.449 2°40.711 75.4 9.2 71.3 13
2003-02-14 13:44:14 51°10.498 2°40.94 75.3 9.2 70.6 13.2
2003-02-14 13:45:14 51°10.548 2°41.17 75.4 9.2 71.2 12.9
2003-02-14 13:46:14 51°10.598 2°41.4 75.2 9.2 70.9 12.9
2003-02-14 13:47:14 51°10.648 2°41.628 75.4 9.1 71 12.7
2003-02-14 13:48:14 51°10.696 2°41.856 75.1 9.1 70.5 12.9
2003-02-14 13:49:14 51°10.745 2°42.083 75.3 9.1 70.9 12.7
2003-02-14 13:50:14 51°10.794 2°42.311 75.3 9.1 70.8 12.5
2003-02-14 13:51:14 51°10.844 2°42.539 75.3 9.1 70.9 12.8
2003-02-14 13:52:14 51°10.895 2°42.766 75.2 9.1 70.7 12.6
2003-02-14 13:53:14 51°10.944 2°42.993 74.9 9.1 70.6 12.6
2003-02-14 13:54:14 51°10.994 2°43.222 75.2 9.1 70.8 12.8
2003-02-14 13:55:14 51°11.043 2°43.45 75.4 9.1 71 12.6
2003-02-14 13:56:14 51°11.093 2°43.676 75.4 9.1 70.8 12.8
2003-02-14 13:57:14 51°11.142 2°43.902 75.4 9 71.3 12.9
2003-02-14 13:58:14 51°11.191 2°44.127 75.4 9 71 12.5
2003-02-14 13:59:14 51°11.24 2°44.351 75.4 9 71 12.5
2003-02-14 14:00:14 51°11.288 2°44.576 74.7 9 70.3 12.6
2003-02-14 14:01:14 51°11.343 2°44.797 73.3 9 68.5 12.5
2003-02-14 14:02:14 51°11.397 2°45.017 73.3 8.9 68.4 12.4
2003-02-14 14:03:14 51°11.451 2°45.238 73.1 9 68.3 12.6
2003-02-14 14:04:14 51°11.505 2°45.46 73.3 9 68.7 12.6
2003-02-14 14:05:14 51°11.559 2°45.682 73.3 9 68.9 12.8
2003-02-14 14:06:14 51°11.613 2°45.905 73.2 9 68.7 12.8
2003-02-14 14:07:14 51°11.668 2°46.128 73.3 9 68.7 12.7
2003-02-14 14:08:14 51°11.722 2°46.35 73.4 9 68.6 12.6
2003-02-14 14:09:14 51°11.782 2°46.569 70 9 65.2 11.9
2003-02-14 14:10:14 51°11.845 2°46.787 70.2 9 65.4 12.6
2003-02-14 14:11:14 51°11.906 2°47.004 70.8 9 66.2 12.5
2003-02-14 14:12:14 51°11.968 2°47.221 70.1 9 65.8 12.6
2003-02-14 14:13:14 51°12.031 2°47.439 70.4 9 65.9 12.5
2003-02-14 14:14:14 51°12.092 2°47.656 70.6 9 66.2 12.3
2003-02-14 14:15:14 51°12.152 2°47.872 69.9 8.9 65.5 12.2
2003-02-14 14:16:14 51°12.212 2°48.088 70.8 8.9 66.5 12.2
2003-02-14 14:17:14 51°12.275 2°48.304 68.1 8.9 63.9 11.8
2003-02-14 14:18:14 51°12.341 2°48.517 68.1 9 64.1 12
2003-02-14 14:19:14 51°12.405 2°48.73 68.3 9 64.1 11.7
2003-02-14 14:20:14 51°12.472 2°48.944 68.2 9 64 11.7
2003-02-14 14:21:14 51°12.537 2°49.158 68.4 9 63.9 11.6
2003-02-14 14:22:14 51°12.606 2°49.369 64.9 8.9 60.8 11.2
2003-02-14 14:23:14 51°12.679 2°49.576 65 9 60.5 11.2
2003-02-14 14:24:14 51°12.752 2°49.783 64.5 9 60.3 11.2
2003-02-14 14:25:14 51°12.825 2°49.992 65.3 9 61.1 11.1
2003-02-14 14:26:14 51°12.899 2°50.201 64 9.1 59.7 18.4
2003-02-14 14:27:14 51°12.974 2°50.408 64.5 9 60.3 18.2
2003-02-14 14:28:14 51°13.05 2°50.616 64.1 9.1 60 18.2
2003-02-14 14:29:14 51°13.126 2°50.824 63.9 9.1 60.1 17.9
2003-02-14 14:30:14 51°13.201 2°51.03 63.8 8.9 59.4 17.9
2003-02-14 14:31:14 51°13.274 2°51.234 64.5 8.9 60.6 17.6
2003-02-14 14:32:14 51°13.347 2°51.438 64.1 8.9 59.7 17.4
2003-02-14 14:33:14 51°13.42 2°51.642 64.2 8.8 60.1 10.4
2003-02-14 14:34:14 51°13.492 2°51.844 64.3 8.7 60.7 10.7
2003-02-14 14:35:14 51°13.564 2°52.046 63.4 8.9 59.7 10.6
2003-02-14 14:36:14 51°13.666 2°52.264 55.5 11.4 50.7 10.4
2003-02-14 14:37:14 51°13.796 2°52.522 56.1 13 51.2 10.2
2003-02-14 14:38:14 51°13.934 2°52.794 56.2 13.3 51.2 10.4
2003-02-14 14:39:14 51°14.072 2°53.067 55.7 13.2 51 10.1
2003-02-14 14:40:14 51°14.199 2°53.354 63.1 13.2 58.8 9.7
2003-02-14 14:41:14 51°14.299 2°53.664 69.6 13.1 65.5 9.6
2003-02-14 14:42:14 51°14.369 2°53.992 80.4 13 76.7 9.3
2003-02-14 14:43:14 51°14.399 2°54.323 85.9 12.3 82.8 9.3
2003-02-14 14:44:14 51°14.416 2°54.645 91.4 12.1 88.9 10.5
2003-02-14 14:45:14 51°14.385 2°54.954 109.7 11.6 109.6 10.1
2003-02-14 14:46:14 51°14.292 2°55.202 130.4 9.8 128.4 10.3
2003-02-14 14:47:14 51°14.203 2°55.343 147.6 6.6 143.8 10.1